»·PEaware :: SWA4178 KPDX-KSFO

SWA4178 :: KPDX-KSFO

FLIGHT INFORMATION

Flight Status: Arrived
Operator:
Southwest Airlines
More flights by this operator :: More flights under this callsign
Pilot: Marissa K. (19829)
Aircraft: BOEING 737-800
(B738)
More flights by this aircraft type
Origin: KPDX Portland Intl
United States
Destination: KSFO San Francisco Intl
United States
More flights between these airports :: More routes between these airports
Route: +MINNE5 FAMUK Q3 FOWND MLBEC BDEGA2
File this flight plan on PilotEdge
Remarks: RMK / NEW PILOT
Altitude:
(Current/Filed)
39,000ft
Speed:
(Current/Filed)
285kts
Departed: 08-Aug-18 08:23 PM
Arrived: 08-Aug-18 09:53 PM
Distance/Time
Traveled:
479nm/1:29
Distance/Time
To Go:
Arrived

Flight Plot

Page will automatically refresh every two minutes.


Map Options




Map Legend


Flown Route
Filed Route
Departure Airport
Arrival Airport
Navaid (VOR, NDB)
Fix

Horizontal Profiles

Position Reports

Time Latitude Longitude Heading Altitude Ground
Speed
08-Aug-18 19:24 45.590235 -122.598369 210 24ft 0kts
08-Aug-18 19:25 45.590235 -122.598369 210 24ft 0kts
08-Aug-18 19:26 45.590235 -122.598369 210 24ft 0kts
08-Aug-18 19:27 45.590235 -122.598369 210 24ft 0kts
08-Aug-18 19:28 45.590235 -122.598369 210 24ft 0kts
08-Aug-18 19:29 45.590235 -122.598369 210 24ft 0kts
08-Aug-18 19:30 45.590235 -122.598369 210 24ft 0kts
08-Aug-18 19:31 45.590235 -122.598369 210 24ft 0kts
08-Aug-18 19:32 45.590235 -122.598369 210 24ft 0kts
08-Aug-18 19:33 45.590235 -122.598369 210 24ft 0kts
08-Aug-18 19:34 45.590235 -122.598369 210 24ft 0kts
08-Aug-18 19:35 45.590235 -122.598369 210 24ft 0kts
08-Aug-18 19:36 45.590235 -122.598369 210 24ft 0kts
08-Aug-18 19:37 45.590235 -122.598369 210 24ft 0kts
08-Aug-18 19:38 45.590235 -122.598369 210 24ft 0kts
08-Aug-18 19:39 45.590235 -122.598369 210 24ft 0kts
08-Aug-18 19:40 45.590235 -122.598369 210 24ft 0kts
08-Aug-18 19:41 45.590235 -122.598369 210 24ft 0kts
08-Aug-18 19:42 45.590235 -122.598369 210 24ft 0kts
08-Aug-18 19:43 45.590235 -122.598369 210 24ft 0kts
08-Aug-18 19:44 45.590235 -122.598369 210 24ft 0kts
08-Aug-18 19:45 45.590235 -122.598369 210 24ft 0kts
08-Aug-18 19:46 45.590235 -122.598369 210 24ft 0kts
08-Aug-18 19:47 45.590235 -122.598369 210 24ft 0kts
08-Aug-18 19:48 45.590235 -122.598369 210 24ft 0kts
08-Aug-18 19:49 45.590235 -122.598369 210 24ft 0kts
08-Aug-18 19:50 45.590235 -122.598369 210 24ft 0kts
08-Aug-18 19:51 45.590235 -122.598369 210 24ft 0kts
08-Aug-18 19:52 45.590235 -122.598369 210 24ft 0kts
08-Aug-18 19:53 45.590235 -122.598369 210 24ft 0kts
08-Aug-18 19:54 45.590235 -122.598369 210 24ft 0kts
08-Aug-18 19:55 45.590235 -122.598369 210 24ft 0kts
08-Aug-18 19:56 45.590235 -122.598369 210 24ft 0kts
08-Aug-18 19:57 45.590235 -122.598369 210 24ft 0kts
08-Aug-18 19:58 45.590235 -122.598369 210 24ft 0kts
08-Aug-18 19:59 45.590235 -122.598369 210 24ft 0kts
08-Aug-18 20:00 45.590235 -122.598369 210 24ft 0kts
08-Aug-18 20:01 45.590235 -122.598369 210 24ft 0kts
08-Aug-18 20:02 45.590235 -122.598369 210 24ft 0kts
08-Aug-18 20:03 45.590235 -122.598369 210 24ft 0kts
08-Aug-18 20:04 45.590235 -122.598369 210 24ft 0kts
08-Aug-18 20:05 45.590235 -122.598369 210 24ft 0kts
08-Aug-18 20:06 45.590235 -122.598369 210 24ft 0kts
08-Aug-18 20:07 45.590235 -122.598369 210 24ft 0kts
08-Aug-18 20:08 45.590235 -122.598369 210 24ft 0kts
08-Aug-18 20:09 45.590235 -122.598369 210 24ft 0kts
08-Aug-18 20:10 45.590607 -122.598062 210 24ft 2kts
08-Aug-18 20:11 45.590678 -122.597523 299 24ft 1kts
08-Aug-18 20:12 45.590676 -122.597517 299 24ft 0kts
08-Aug-18 20:13 45.590676 -122.597517 299 24ft 0kts
08-Aug-18 20:14 45.590676 -122.597517 299 24ft 0kts
08-Aug-18 20:15 45.590676 -122.597517 299 24ft 0kts
08-Aug-18 20:16 45.590676 -122.597517 299 24ft 0kts
08-Aug-18 20:17 45.590676 -122.597517 299 24ft 0kts
08-Aug-18 20:18 45.591049 -122.600424 242 24ft 12kts
08-Aug-18 20:19 45.588481 -122.598968 119 23ft 16kts
08-Aug-18 20:20 45.585979 -122.593185 130 24ft 18kts
08-Aug-18 20:21 45.582867 -122.586685 118 23ft 21kts
08-Aug-18 20:22 45.581280 -122.583660 188 21ft 0kts
08-Aug-18 20:23 45.581208 -122.583676 191 21ft 6kts
08-Aug-18 20:24 45.584702 -122.594709 300 21ft 126kts
08-Aug-18 20:25 45.608636 -122.655694 305 1618ft 243kts
08-Aug-18 20:26 45.646917 -122.742813 300 5520ft 268kts
08-Aug-18 20:27 45.669592 -122.848755 253 7009ft 290kts
08-Aug-18 20:28 45.616753 -122.921977 189 7193ft 280kts
08-Aug-18 20:29 45.539401 -122.932422 184 10657ft 300kts
08-Aug-18 20:30 45.453776 -122.942287 186 14088ft 319kts
08-Aug-18 20:31 45.364105 -122.952659 186 17591ft 332kts
08-Aug-18 20:32 45.270736 -122.963446 187 20764ft 346kts
08-Aug-18 20:33 45.173711 -122.979310 192 23581ft 359kts
08-Aug-18 20:34 45.074062 -123.002731 192 26078ft 372kts
08-Aug-18 20:35 44.970425 -123.026999 191 28249ft 387kts
08-Aug-18 20:36 44.866557 -123.051131 191 30558ft 390kts
08-Aug-18 20:37 44.760883 -123.075532 192 33126ft 381kts
08-Aug-18 20:38 44.658235 -123.099165 192 35352ft 373kts
08-Aug-18 20:39 44.557242 -123.122364 192 37206ft 369kts
08-Aug-18 20:40 44.455335 -123.135488 183 38706ft 374kts
08-Aug-18 20:41 44.348752 -123.131509 182 39053ft 401kts
08-Aug-18 20:42 44.234950 -123.127314 182 39043ft 414kts
08-Aug-18 20:43 44.120116 -123.123119 182 39041ft 414kts
08-Aug-18 20:44 44.005445 -123.118995 182 38968ft 413kts
08-Aug-18 20:45 43.894763 -123.115055 182 38967ft 415kts
08-Aug-18 20:46 43.782594 -123.111078 182 38974ft 414kts
08-Aug-18 20:47 43.686465 -123.107683 182 38973ft 415kts
08-Aug-18 20:48 43.552346 -123.102959 182 38972ft 415kts
08-Aug-18 20:49 43.456516 -123.099590 182 38971ft 415kts
08-Aug-18 20:50 43.321823 -123.094864 182 38970ft 416kts
08-Aug-18 20:51 43.226090 -123.091512 182 38969ft 416kts
08-Aug-18 20:52 43.091573 -123.086811 182 38968ft 416kts
08-Aug-18 20:53 42.976002 -123.082814 181 38967ft 417kts
08-Aug-18 20:54 42.884342 -123.079681 180 38972ft 419kts
08-Aug-18 20:55 42.767493 -123.075626 180 38968ft 420kts
08-Aug-18 20:56 42.631859 -123.070913 180 38964ft 420kts
08-Aug-18 20:57 42.534500 -123.067536 180 38963ft 420kts
08-Aug-18 20:58 42.417921 -123.063603 180 38962ft 421kts
08-Aug-18 20:59 42.301402 -123.059837 180 38961ft 421kts
08-Aug-18 21:00 42.184544 -123.056071 180 38961ft 421kts
08-Aug-18 21:01 42.067480 -123.052309 180 38960ft 421kts
08-Aug-18 21:02 41.950606 -123.048562 180 38970ft 422kts
08-Aug-18 21:03 41.838928 -123.044990 180 38998ft 422kts
08-Aug-18 21:04 41.721908 -123.041253 180 39019ft 422kts
08-Aug-18 21:05 41.605044 -123.037527 180 39019ft 422kts
08-Aug-18 21:06 41.488218 -123.033808 180 39018ft 422kts
08-Aug-18 21:07 41.371700 -123.030103 180 39017ft 423kts
08-Aug-18 21:08 41.254964 -123.026503 180 39016ft 423kts
08-Aug-18 21:09 41.138258 -123.023000 180 39057ft 421kts
08-Aug-18 21:10 41.021235 -123.019569 178 38989ft 423kts
08-Aug-18 21:11 40.903473 -123.016102 178 38923ft 427kts
08-Aug-18 21:12 40.790826 -123.012752 178 38928ft 427kts
08-Aug-18 21:13 40.672569 -123.009250 178 38927ft 427kts
08-Aug-18 21:14 40.554356 -123.005761 178 38927ft 427kts
08-Aug-18 21:15 40.435715 -123.002268 178 38926ft 428kts
08-Aug-18 21:16 40.317426 -122.998793 178 38925ft 428kts
08-Aug-18 21:17 40.198397 -122.995301 178 38931ft 428kts
08-Aug-18 21:18 40.079772 -122.991823 178 38940ft 428kts
08-Aug-18 21:19 39.960949 -122.988344 178 38949ft 428kts
08-Aug-18 21:20 39.848069 -122.985039 178 38953ft 429kts
08-Aug-18 21:21 39.729243 -122.981562 178 38965ft 429kts
08-Aug-18 21:22 39.610275 -122.978083 178 38973ft 429kts
08-Aug-18 21:23 39.491464 -122.974609 178 38972ft 429kts
08-Aug-18 21:24 39.372788 -122.971139 178 38971ft 429kts
08-Aug-18 21:25 39.253901 -122.967666 178 38971ft 430kts
08-Aug-18 21:26 39.135045 -122.964195 178 38970ft 428kts
08-Aug-18 21:27 39.016507 -122.961389 178 38969ft 429kts
08-Aug-18 21:28 38.897883 -122.959178 176 36665ft 425kts
08-Aug-18 21:29 38.787013 -122.934290 164 33796ft 430kts
08-Aug-18 21:30 38.670801 -122.899477 164 30559ft 430kts
08-Aug-18 21:31 38.558403 -122.866160 165 28122ft 408kts
08-Aug-18 21:32 38.449314 -122.833922 165 25913ft 397kts
08-Aug-18 21:33 38.342846 -122.802590 165 23785ft 388kts
08-Aug-18 21:34 38.239721 -122.772354 165 21728ft 377kts
08-Aug-18 21:35 38.139237 -122.743044 165 19726ft 367kts
08-Aug-18 21:36 38.041048 -122.714510 166 17764ft 357kts
08-Aug-18 21:37 37.946094 -122.686995 166 15861ft 348kts
08-Aug-18 21:38 37.863879 -122.637573 139 14077ft 337kts
08-Aug-18 21:39 37.794078 -122.562965 139 12381ft 321kts
08-Aug-18 21:40 37.729348 -122.494130 139 10974ft 292kts
08-Aug-18 21:41 37.668175 -122.428832 139 10691ft 283kts
08-Aug-18 21:42 37.609436 -122.366743 144 10704ft 280kts
08-Aug-18 21:43 37.545834 -122.324482 152 9630ft 261kts
08-Aug-18 21:44 37.480942 -122.283159 152 7653ft 266kts
08-Aug-18 21:45 37.439980 -122.209788 113 5691ft 265kts
08-Aug-18 21:46 37.436288 -122.131223 44 3990ft 211kts
08-Aug-18 21:47 37.478392 -122.102501 344 3994ft 164kts
08-Aug-18 21:48 37.516469 -122.130674 324 3151ft 151kts
08-Aug-18 21:49 37.535790 -122.176384 297 3005ft 147kts
08-Aug-18 21:50 37.554196 -122.221491 297 2396ft 137kts
08-Aug-18 21:51 37.571583 -122.262978 297 1692ft 132kts
08-Aug-18 21:52 37.588526 -122.303190 297 995ft 129kts
08-Aug-18 21:53 37.604919 -122.342186 297 329ft 125kts
08-Aug-18 21:54 37.617328 -122.371992 282 14ft 19kts
08-Aug-18 21:55 37.618885 -122.379529 258 30ft 14kts
08-Aug-18 21:56 37.617686 -122.379871 163 30ft 12kts
08-Aug-18 21:57 37.613336 -122.381864 205 31ft 8kts
08-Aug-18 21:58 37.610685 -122.384893 294 31ft 12kts
08-Aug-18 21:59 37.613285 -122.386314 69 31ft 1kts
08-Aug-18 22:00 37.613396 -122.385707 77 31ft 0kts
08-Aug-18 22:01 37.613396 -122.385707 77 31ft 0kts
08-Aug-18 22:02 37.613396 -122.385707 77 31ft 0kts
08-Aug-18 22:03 37.613396 -122.385707 77 31ft 0kts
08-Aug-18 22:04 37.613396 -122.385707 77 31ft 0kts
08-Aug-18 22:05 37.613396 -122.385707 77 31ft 0kts
08-Aug-18 22:06 37.613396 -122.385707 77 31ft 0kts
08-Aug-18 22:07 37.613396 -122.385707 77 31ft 0kts
08-Aug-18 22:08 37.613396 -122.385707 77 31ft 0kts

Navigation Log

Ident Type
1. KPDX Airport
2. RIVRR Fix
3. COSUG Fix
4. BISLE Fix
5. MINNE Fix
6. FAMUK Fix
7. FAMUK Navaid
8. FRFLY Navaid
9. FINER Navaid
10. FOWND Navaid
11. MLBEC Fix
12. JONNE Fix
13. BGGLO Fix
14. LOZIT Fix
15. BDEGA Fix
16. CORKK Fix
17. BRIXX Fix
18. KSFO Airport